Main page
METAR-TAF:

METAR-TAF

Airports :

Corpus Christi International Airport

Corpus Christi / Kingsville, Texas, United States

latitude: 27-46-23N, longitude: 097-30-46W, elevation: 43 ft

Current weather observation

The report was made 41 minutes ago, at 17:51 UTC
Wind 8 mph from the Northeast
Temperature 59°F
Humidity 23%
Pressure 30.45 in. Hg
Visibility: 10 miles
Few clouds at a height of 400 ft
Few clouds at a height of 3500 ft
Few clouds at a height of 18000 ft

METAR: KCRP 271751Z 04007KT 10SM FEW004 FEW035 FEW180 15/M06 A3045 RMK AO2 SLP310 FU FEW004 T01501056 10150 21006 58008

Time: 12:32 (18:32 UTC)

Forecast

The report was made 1 hour and 2 minutes ago, at 17:30 UTC
Forecast valid from 27 at 18 UTC to 28 at 18 UTC
Wind 6 mph from variable directions
Visibility: 6 miles
Clear sky

TAF: KCRP 271730Z 2718/2818 VRB05KT P6SM SKC

Weather observations and forecasts of more than 4000 airports (METAR and TAF reports).

The available stations are represented by yellow and red dots on the map.

Hover mouse over dot to see the name of the station.

Then click to see weather observations and forecasts.

To change the map : click on the green buttons with a black cross to zoom in, on the green button with a dash to zoom out, or on the green arrows for adjacent maps.


METAR-TAF: